sensor_id;sensor_type;location;lat;lon;timestamp;pressure;altitude;pressure_sealevel;temperature;humidity
63708;BME280;67643;-34.198;22.084;2023-07-16T00:01:38;100607.42;;;18.31;35.61
63708;BME280;67643;-34.198;22.084;2023-07-16T00:04:07;100602.54;;;18.02;36.37
63708;BME280;67643;-34.198;22.084;2023-07-16T00:06:36;100606.55;;;18.20;36.41
63708;BME280;67643;-34.198;22.084;2023-07-16T00:09:05;100610.39;;;17.77;36.26
63708;BME280;67643;-34.198;22.084;2023-07-16T00:11:33;100609.50;;;17.71;36.28
63708;BME280;67643;-34.198;22.084;2023-07-16T00:14:02;100606.13;;;18.30;36.26
63708;BME280;67643;-34.198;22.084;2023-07-16T00:16:31;100607.79;;;17.82;36.64
63708;BME280;67643;-34.198;22.084;2023-07-16T00:18:59;100608.43;;;17.44;36.70
63708;BME280;67643;-34.198;22.084;2023-07-16T00:21:28;100617.03;;;17.78;36.94
63708;BME280;67643;-34.198;22.084;2023-07-16T00:23:56;100617.31;;;17.82;36.80
63708;BME280;67643;-34.198;22.084;2023-07-16T00:26:25;100618.15;;;17.74;36.87
63708;BME280;67643;-34.198;22.084;2023-07-16T00:28:53;100608.74;;;17.40;36.63
63708;BME280;67643;-34.198;22.084;2023-07-16T00:31:22;100596.25;;;17.80;35.80
63708;BME280;67643;-34.198;22.084;2023-07-16T00:33:51;100594.48;;;17.68;35.43
63708;BME280;67643;-34.198;22.084;2023-07-16T00:36:19;100585.48;;;17.65;35.77
63708;BME280;67643;-34.198;22.084;2023-07-16T00:38:48;100580.23;;;17.57;34.96
63708;BME280;67643;-34.198;22.084;2023-07-16T00:41:16;100585.40;;;18.09;35.97
63708;BME280;67643;-34.198;22.084;2023-07-16T00:43:45;100591.11;;;18.04;35.67
63708;BME280;67643;-34.198;22.084;2023-07-16T00:46:14;100592.57;;;17.79;36.19
63708;BME280;67643;-34.198;22.084;2023-07-16T00:48:43;100593.91;;;18.10;35.47
63708;BME280;67643;-34.198;22.084;2023-07-16T00:51:12;100596.87;;;18.04;35.88
63708;BME280;67643;-34.198;22.084;2023-07-16T00:53:41;100609.09;;;18.10;35.44
63708;BME280;67643;-34.198;22.084;2023-07-16T00:56:10;100609.06;;;17.76;36.02
63708;BME280;67643;-34.198;22.084;2023-07-16T00:58:39;100605.27;;;17.86;36.33
63708;BME280;67643;-34.198;22.084;2023-07-16T01:01:07;100604.70;;;17.52;36.18
63708;BME280;67643;-34.198;22.084;2023-07-16T01:03:36;100607.43;;;17.65;36.36
63708;BME280;67643;-34.198;22.084;2023-07-16T01:06:11;100607.18;;;17.91;36.28
63708;BME280;67643;-34.198;22.084;2023-07-16T01:08:46;100607.64;;;17.46;36.21
63708;BME280;67643;-34.198;22.084;2023-07-16T01:11:19;100603.52;;;17.63;36.31
63708;BME280;67643;-34.198;22.084;2023-07-16T01:13:48;100597.64;;;17.49;35.97
63708;BME280;67643;-34.198;22.084;2023-07-16T01:16:21;100592.57;;;17.52;35.92
63708;BME280;67643;-34.198;22.084;2023-07-16T01:18:50;100587.65;;;17.38;36.16
63708;BME280;67643;-34.198;22.084;2023-07-16T01:21:20;100579.88;;;17.71;36.39
63708;BME280;67643;-34.198;22.084;2023-07-16T01:24:05;100581.54;;;17.65;35.81
63708;BME280;67643;-34.198;22.084;2023-07-16T01:26:57;100591.79;;;17.44;34.97
63708;BME280;67643;-34.198;22.084;2023-07-16T01:29:31;100603.60;;;17.63;35.90
63708;BME280;67643;-34.198;22.084;2023-07-16T01:32:02;100606.64;;;17.95;35.79
63708;BME280;67643;-34.198;22.084;2023-07-16T01:34:33;100614.03;;;17.61;35.99
63708;BME280;67643;-34.198;22.084;2023-07-16T01:37:03;100619.66;;;17.39;35.18
63708;BME280;67643;-34.198;22.084;2023-07-16T01:39:32;100618.28;;;17.92;35.71
63708;BME280;67643;-34.198;22.084;2023-07-16T01:42:01;100626.65;;;17.34;35.94
63708;BME280;67643;-34.198;22.084;2023-07-16T01:44:29;100625.24;;;17.59;35.64
63708;BME280;67643;-34.198;22.084;2023-07-16T01:47:08;100631.18;;;17.83;35.72
63708;BME280;67643;-34.198;22.084;2023-07-16T01:49:37;100624.66;;;17.80;35.67
63708;BME280;67643;-34.198;22.084;2023-07-16T01:52:06;100620.52;;;17.91;35.63
63708;BME280;67643;-34.198;22.084;2023-07-16T01:54:34;100622.18;;;17.75;35.85
63708;BME280;67643;-34.198;22.084;2023-07-16T01:57:03;100619.04;;;17.76;35.69
63708;BME280;67643;-34.198;22.084;2023-07-16T01:59:32;100615.77;;;17.71;34.48
63708;BME280;67643;-34.198;22.084;2023-07-16T02:02:00;100608.05;;;17.74;35.35
63708;BME280;67643;-34.198;22.084;2023-07-16T02:04:29;100584.52;;;17.66;35.65
63708;BME280;67643;-34.198;22.084;2023-07-16T02:06:57;100571.97;;;17.41;35.40
63708;BME280;67643;-34.198;22.084;2023-07-16T02:09:26;100565.22;;;17.61;35.09
63708;BME280;67643;-34.198;22.084;2023-07-16T02:11:55;100563.63;;;17.60;35.39
63708;BME280;67643;-34.198;22.084;2023-07-16T02:14:23;100572.98;;;17.53;35.38
63708;BME280;67643;-34.198;22.084;2023-07-16T02:16:52;100582.20;;;17.45;35.81
63708;BME280;67643;-34.198;22.084;2023-07-16T02:19:19;100596.56;;;17.53;36.11
63708;BME280;67643;-34.198;22.084;2023-07-16T02:21:48;100597.65;;;17.42;35.69
63708;BME280;67643;-34.198;22.084;2023-07-16T02:24:17;100602.35;;;17.40;35.35
63708;BME280;67643;-34.198;22.084;2023-07-16T02:26:46;100602.86;;;17.43;35.83
63708;BME280;67643;-34.198;22.084;2023-07-16T02:29:14;100584.95;;;17.37;35.67
63708;BME280;67643;-34.198;22.084;2023-07-16T02:31:43;100582.78;;;17.41;35.76
63708;BME280;67643;-34.198;22.084;2023-07-16T02:34:12;100596.13;;;17.42;35.23
63708;BME280;67643;-34.198;22.084;2023-07-16T02:36:40;100604.68;;;17.44;35.42
63708;BME280;67643;-34.198;22.084;2023-07-16T02:39:09;100594.56;;;17.38;35.23
63708;BME280;67643;-34.198;22.084;2023-07-16T02:41:37;100603.62;;;17.34;35.61
63708;BME280;67643;-34.198;22.084;2023-07-16T02:44:08;100611.84;;;17.33;35.74
63708;BME280;67643;-34.198;22.084;2023-07-16T02:46:37;100604.13;;;17.42;35.98
63708;BME280;67643;-34.198;22.084;2023-07-16T02:49:06;100608.40;;;17.36;35.75
63708;BME280;67643;-34.198;22.084;2023-07-16T02:51:34;100611.72;;;17.16;35.91
63708;BME280;67643;-34.198;22.084;2023-07-16T02:54:02;100621.94;;;17.37;35.81
63708;BME280;67643;-34.198;22.084;2023-07-16T02:56:31;100632.36;;;17.49;35.96
63708;BME280;67643;-34.198;22.084;2023-07-16T02:59:00;100642.05;;;17.28;36.21
63708;BME280;67643;-34.198;22.084;2023-07-16T03:01:28;100647.96;;;17.40;36.23
63708;BME280;67643;-34.198;22.084;2023-07-16T03:03:57;100666.21;;;17.56;36.32
63708;BME280;67643;-34.198;22.084;2023-07-16T03:06:25;100670.55;;;17.21;36.25
63708;BME280;67643;-34.198;22.084;2023-07-16T03:08:54;100673.39;;;17.32;36.41
63708;BME280;67643;-34.198;22.084;2023-07-16T03:11:23;100663.66;;;17.17;36.34
63708;BME280;67643;-34.198;22.084;2023-07-16T03:13:52;100649.61;;;17.48;35.97
63708;BME280;67643;-34.198;22.084;2023-07-16T03:16:21;100657.47;;;17.31;36.28
63708;BME280;67643;-34.198;22.084;2023-07-16T03:18:49;100671.42;;;17.75;36.11
63708;BME280;67643;-34.198;22.084;2023-07-16T03:21:18;100657.80;;;17.37;36.32
63708;BME280;67643;-34.198;22.084;2023-07-16T03:23:46;100644.33;;;17.35;36.36
63708;BME280;67643;-34.198;22.084;2023-07-16T03:26:15;100647.18;;;17.40;35.90
63708;BME280;67643;-34.198;22.084;2023-07-16T03:28:43;100654.89;;;17.49;36.02
63708;BME280;67643;-34.198;22.084;2023-07-16T03:31:12;100658.00;;;17.36;36.26
63708;BME280;67643;-34.198;22.084;2023-07-16T03:33:40;100654.83;;;17.36;36.24
63708;BME280;67643;-34.198;22.084;2023-07-16T03:36:09;100655.30;;;17.24;36.15
63708;BME280;67643;-34.198;22.084;2023-07-16T03:38:37;100657.13;;;17.24;36.26
63708;BME280;67643;-34.198;22.084;2023-07-16T03:41:06;100656.57;;;17.14;36.30
63708;BME280;67643;-34.198;22.084;2023-07-16T03:43:35;100653.84;;;17.50;36.35
63708;BME280;67643;-34.198;22.084;2023-07-16T03:46:03;100650.01;;;17.20;36.47
63708;BME280;67643;-34.198;22.084;2023-07-16T03:48:32;100646.57;;;17.20;36.45
63708;BME280;67643;-34.198;22.084;2023-07-16T03:51:00;100634.27;;;17.10;36.17
63708;BME280;67643;-34.198;22.084;2023-07-16T03:53:29;100620.53;;;17.16;36.23
63708;BME280;67643;-34.198;22.084;2023-07-16T03:55:58;100618.34;;;17.37;36.25
63708;BME280;67643;-34.198;22.084;2023-07-16T03:58:26;100622.88;;;17.06;36.69
63708;BME280;67643;-34.198;22.084;2023-07-16T04:00:55;100621.27;;;17.13;35.99
63708;BME280;67643;-34.198;22.084;2023-07-16T04:03:23;100620.56;;;17.05;36.60
63708;BME280;67643;-34.198;22.084;2023-07-16T04:05:52;100616.78;;;17.07;35.95
63708;BME280;67643;-34.198;22.084;2023-07-16T04:08:20;100626.88;;;17.05;36.35
63708;BME280;67643;-34.198;22.084;2023-07-16T04:10:49;100638.05;;;17.07;36.54
63708;BME280;67643;-34.198;22.084;2023-07-16T04:13:17;100646.71;;;17.04;36.74
63708;BME280;67643;-34.198;22.084;2023-07-16T04:15:47;100651.50;;;17.01;36.70
63708;BME280;67643;-34.198;22.084;2023-07-16T04:18:16;100657.89;;;16.77;36.56
63708;BME280;67643;-34.198;22.084;2023-07-16T04:20:44;100666.45;;;16.92;36.89
63708;BME280;67643;-34.198;22.084;2023-07-16T04:23:12;100671.85;;;17.03;36.56
63708;BME280;67643;-34.198;22.084;2023-07-16T04:25:41;100675.11;;;16.88;36.66
63708;BME280;67643;-34.198;22.084;2023-07-16T04:28:10;100673.41;;;16.94;36.78
63708;BME280;67643;-34.198;22.084;2023-07-16T04:30:39;100680.31;;;16.83;36.97
63708;BME280;67643;-34.198;22.084;2023-07-16T04:33:08;100687.03;;;16.95;37.08
63708;BME280;67643;-34.198;22.084;2023-07-16T04:35:37;100694.93;;;17.07;37.24
63708;BME280;67643;-34.198;22.084;2023-07-16T04:38:06;100697.82;;;16.84;37.23
63708;BME280;67643;-34.198;22.084;2023-07-16T04:40:34;100696.56;;;17.00;36.96
63708;BME280;67643;-34.198;22.084;2023-07-16T04:43:03;100693.93;;;16.98;37.02
63708;BME280;67643;-34.198;22.084;2023-07-16T04:45:31;100695.80;;;16.95;36.98
63708;BME280;67643;-34.198;22.084;2023-07-16T04:48:00;100694.82;;;16.97;36.79
63708;BME280;67643;-34.198;22.084;2023-07-16T04:50:28;100698.79;;;16.93;37.06
63708;BME280;67643;-34.198;22.084;2023-07-16T04:52:57;100703.12;;;16.90;37.02
63708;BME280;67643;-34.198;22.084;2023-07-16T04:55:26;100707.57;;;16.83;36.99
63708;BME280;67643;-34.198;22.084;2023-07-16T04:57:55;100712.75;;;17.00;37.33
63708;BME280;67643;-34.198;22.084;2023-07-16T05:00:23;100712.79;;;17.04;37.21
63708;BME280;67643;-34.198;22.084;2023-07-16T05:02:52;100709.67;;;17.04;37.18
63708;BME280;67643;-34.198;22.084;2023-07-16T05:05:20;100710.12;;;16.78;37.29
63708;BME280;67643;-34.198;22.084;2023-07-16T05:07:49;100713.18;;;16.75;37.36
63708;BME280;67643;-34.198;22.084;2023-07-16T05:10:17;100718.26;;;16.68;37.50
63708;BME280;67643;-34.198;22.084;2023-07-16T05:12:46;100723.94;;;16.81;37.30
63708;BME280;67643;-34.198;22.084;2023-07-16T05:15:14;100724.63;;;17.17;36.99
63708;BME280;67643;-34.198;22.084;2023-07-16T05:17:44;100719.49;;;16.87;37.25
63708;BME280;67643;-34.198;22.084;2023-07-16T05:20:12;100720.87;;;17.35;37.25
63708;BME280;67643;-34.198;22.084;2023-07-16T05:22:41;100721.77;;;17.04;37.39
63708;BME280;67643;-34.198;22.084;2023-07-16T05:25:10;100735.70;;;16.71;37.58
63708;BME280;67643;-34.198;22.084;2023-07-16T05:27:38;100742.85;;;16.95;37.55
63708;BME280;67643;-34.198;22.084;2023-07-16T05:30:08;100741.27;;;16.95;37.61
63708;BME280;67643;-34.198;22.084;2023-07-16T05:32:36;100739.32;;;16.67;37.59
63708;BME280;67643;-34.198;22.084;2023-07-16T05:35:05;100743.66;;;16.80;37.43
63708;BME280;67643;-34.198;22.084;2023-07-16T05:37:34;100741.86;;;16.87;37.39
63708;BME280;67643;-34.198;22.084;2023-07-16T05:40:03;100742.20;;;17.04;37.50
63708;BME280;67643;-34.198;22.084;2023-07-16T05:42:32;100735.51;;;16.73;37.70
63708;BME280;67643;-34.198;22.084;2023-07-16T05:45:01;100740.48;;;16.78;37.68
63708;BME280;67643;-34.198;22.084;2023-07-16T05:47:29;100752.91;;;16.97;37.78
63708;BME280;67643;-34.198;22.084;2023-07-16T05:49:58;100757.83;;;16.99;37.58
63708;BME280;67643;-34.198;22.084;2023-07-16T05:52:27;100761.69;;;16.90;37.53
63708;BME280;67643;-34.198;22.084;2023-07-16T05:54:55;100761.73;;;16.80;37.73
63708;BME280;67643;-34.198;22.084;2023-07-16T05:57:23;100759.11;;;16.99;37.74
63708;BME280;67643;-34.198;22.084;2023-07-16T05:59:52;100764.69;;;16.87;37.82
63708;BME280;67643;-34.198;22.084;2023-07-16T06:02:21;100768.87;;;16.77;37.90
63708;BME280;67643;-34.198;22.084;2023-07-16T06:04:49;100775.80;;;16.77;37.91
63708;BME280;67643;-34.198;22.084;2023-07-16T06:07:18;100775.78;;;16.87;37.85
63708;BME280;67643;-34.198;22.084;2023-07-16T06:09:46;100775.11;;;16.53;38.09
63708;BME280;67643;-34.198;22.084;2023-07-16T06:12:15;100774.38;;;16.84;37.96
63708;BME280;67643;-34.198;22.084;2023-07-16T06:14:44;100778.42;;;16.77;38.11
63708;BME280;67643;-34.198;22.084;2023-07-16T06:17:12;100776.34;;;16.78;38.11
63708;BME280;67643;-34.198;22.084;2023-07-16T06:19:42;100780.30;;;16.99;37.95
63708;BME280;67643;-34.198;22.084;2023-07-16T06:22:10;100778.62;;;16.91;38.07
63708;BME280;67643;-34.198;22.084;2023-07-16T06:24:39;100778.54;;;16.92;38.09
63708;BME280;67643;-34.198;22.084;2023-07-16T06:27:07;100779.95;;;16.95;38.13
63708;BME280;67643;-34.198;22.084;2023-07-16T06:29:36;100778.64;;;16.89;38.31
63708;BME280;67643;-34.198;22.084;2023-07-16T06:32:05;100774.26;;;17.08;38.38
63708;BME280;67643;-34.198;22.084;2023-07-16T06:34:34;100779.90;;;17.05;38.15
63708;BME280;67643;-34.198;22.084;2023-07-16T06:37:03;100782.32;;;16.89;38.51
63708;BME280;67643;-34.198;22.084;2023-07-16T06:39:31;100783.65;;;17.05;38.22
63708;BME280;67643;-34.198;22.084;2023-07-16T06:42:00;100785.48;;;17.12;38.19
63708;BME280;67643;-34.198;22.084;2023-07-16T06:44:28;100786.25;;;17.35;38.36
63708;BME280;67643;-34.198;22.084;2023-07-16T06:46:57;100785.30;;;17.21;38.24
63708;BME280;67643;-34.198;22.084;2023-07-16T06:49:25;100775.20;;;17.27;38.32
63708;BME280;67643;-34.198;22.084;2023-07-16T06:51:54;100777.45;;;17.21;38.42
63708;BME280;67643;-34.198;22.084;2023-07-16T06:54:22;100779.96;;;17.32;38.23
63708;BME280;67643;-34.198;22.084;2023-07-16T06:56:51;100786.36;;;16.99;38.51
63708;BME280;67643;-34.198;22.084;2023-07-16T06:59:19;100795.42;;;17.34;38.32
63708;BME280;67643;-34.198;22.084;2023-07-16T07:01:48;100804.13;;;17.26;38.55
63708;BME280;67643;-34.198;22.084;2023-07-16T07:04:17;100808.98;;;17.13;38.63
63708;BME280;67643;-34.198;22.084;2023-07-16T07:06:45;100808.11;;;16.60;39.17
63708;BME280;67643;-34.198;22.084;2023-07-16T07:09:13;100802.32;;;17.52;38.87
63708;BME280;67643;-34.198;22.084;2023-07-16T07:11:42;100798.35;;;17.48;38.72
63708;BME280;67643;-34.198;22.084;2023-07-16T07:14:10;100802.36;;;17.51;38.71
63708;BME280;67643;-34.198;22.084;2023-07-16T07:16:39;100806.70;;;17.07;39.08
63708;BME280;67643;-34.198;22.084;2023-07-16T07:19:08;100811.66;;;17.59;39.00
63708;BME280;67643;-34.198;22.084;2023-07-16T07:21:37;100807.61;;;17.62;38.99
63708;BME280;67643;-34.198;22.084;2023-07-16T07:24:05;100813.41;;;17.12;39.65
63708;BME280;67643;-34.198;22.084;2023-07-16T07:26:33;100817.32;;;16.97;39.57
63708;BME280;67643;-34.198;22.084;2023-07-16T07:29:02;100817.14;;;17.38;39.68
63708;BME280;67643;-34.198;22.084;2023-07-16T07:31:31;100825.86;;;17.51;39.62
63708;BME280;67643;-34.198;22.084;2023-07-16T07:33:59;100828.00;;;17.48;39.37
63708;BME280;67643;-34.198;22.084;2023-07-16T07:36:28;100831.79;;;17.61;39.49
63708;BME280;67643;-34.198;22.084;2023-07-16T07:38:56;100828.53;;;17.25;39.44
63708;BME280;67643;-34.198;22.084;2023-07-16T07:41:25;100832.54;;;17.59;39.41
63708;BME280;67643;-34.198;22.084;2023-07-16T07:43:53;100832.84;;;17.48;39.67
63708;BME280;67643;-34.198;22.084;2023-07-16T07:46:22;100838.68;;;17.15;39.80
63708;BME280;67643;-34.198;22.084;2023-07-16T07:48:50;100839.01;;;17.59;39.71
63708;BME280;67643;-34.198;22.084;2023-07-16T07:51:18;100842.44;;;17.23;39.84
63708;BME280;67643;-34.198;22.084;2023-07-16T07:53:47;100846.39;;;17.32;39.82
63708;BME280;67643;-34.198;22.084;2023-07-16T07:56:15;100845.95;;;17.86;39.82
63708;BME280;67643;-34.198;22.084;2023-07-16T07:58:44;100846.55;;;17.94;39.76
63708;BME280;67643;-34.198;22.084;2023-07-16T08:01:12;100842.51;;;17.67;39.88
63708;BME280;67643;-34.198;22.084;2023-07-16T08:03:41;100846.16;;;17.54;40.46
63708;BME280;67643;-34.198;22.084;2023-07-16T08:06:09;100852.93;;;17.13;40.48
63708;BME280;67643;-34.198;22.084;2023-07-16T08:08:38;100852.42;;;17.49;40.70
63708;BME280;67643;-34.198;22.084;2023-07-16T08:11:06;100855.13;;;17.10;40.65
63708;BME280;67643;-34.198;22.084;2023-07-16T08:13:35;100857.53;;;17.45;40.81
63708;BME280;67643;-34.198;22.084;2023-07-16T08:16:04;100858.35;;;17.28;40.72
63708;BME280;67643;-34.198;22.084;2023-07-16T08:18:32;100855.96;;;17.45;40.48
63708;BME280;67643;-34.198;22.084;2023-07-16T08:21:01;100861.48;;;17.22;40.38
63708;BME280;67643;-34.198;22.084;2023-07-16T08:23:30;100860.14;;;17.30;40.33
63708;BME280;67643;-34.198;22.084;2023-07-16T08:25:59;100861.44;;;17.57;40.31
63708;BME280;67643;-34.198;22.084;2023-07-16T08:28:27;100866.65;;;17.81;40.30
63708;BME280;67643;-34.198;22.084;2023-07-16T08:30:55;100866.96;;;17.88;40.26
63708;BME280;67643;-34.198;22.084;2023-07-16T08:33:24;100864.30;;;17.41;40.22
63708;BME280;67643;-34.198;22.084;2023-07-16T08:35:53;100864.01;;;17.42;40.26
63708;BME280;67643;-34.198;22.084;2023-07-16T08:38:21;100866.94;;;17.70;40.30
63708;BME280;67643;-34.198;22.084;2023-07-16T08:40:50;100861.28;;;17.83;40.14
63708;BME280;67643;-34.198;22.084;2023-07-16T08:43:19;100856.24;;;17.80;40.23
63708;BME280;67643;-34.198;22.084;2023-07-16T08:45:49;100852.29;;;17.53;40.24
63708;BME280;67643;-34.198;22.084;2023-07-16T08:48:18;100850.17;;;17.60;40.22
63708;BME280;67643;-34.198;22.084;2023-07-16T08:50:47;100845.60;;;17.52;40.40
63708;BME280;67643;-34.198;22.084;2023-07-16T08:53:16;100843.87;;;17.58;40.33
63708;BME280;67643;-34.198;22.084;2023-07-16T08:55:45;100840.51;;;17.61;40.30
63708;BME280;67643;-34.198;22.084;2023-07-16T08:58:14;100837.55;;;17.61;40.39
63708;BME280;67643;-34.198;22.084;2023-07-16T09:00:44;100836.71;;;17.78;40.20
63708;BME280;67643;-34.198;22.084;2023-07-16T09:03:13;100833.23;;;17.85;40.12
63708;BME280;67643;-34.198;22.084;2023-07-16T09:05:42;100832.49;;;17.88;40.10
63708;BME280;67643;-34.198;22.084;2023-07-16T09:08:10;100828.01;;;17.66;40.16
63708;BME280;67643;-34.198;22.084;2023-07-16T09:10:40;100828.06;;;17.94;40.13
63708;BME280;67643;-34.198;22.084;2023-07-16T09:13:10;100832.16;;;17.94;40.13
63708;BME280;67643;-34.198;22.084;2023-07-16T09:15:38;100835.19;;;17.99;40.12
63708;BME280;67643;-34.198;22.084;2023-07-16T09:18:07;100835.17;;;17.93;40.26
63708;BME280;67643;-34.198;22.084;2023-07-16T09:20:35;100834.30;;;17.85;40.47
63708;BME280;67643;-34.198;22.084;2023-07-16T09:23:04;100831.33;;;17.92;40.43
63708;BME280;67643;-34.198;22.084;2023-07-16T09:25:33;100826.45;;;18.03;40.32
63708;BME280;67643;-34.198;22.084;2023-07-16T09:28:03;100821.09;;;18.04;40.32
63708;BME280;67643;-34.198;22.084;2023-07-16T09:30:32;100815.79;;;18.20;40.12
63708;BME280;67643;-34.198;22.084;2023-07-16T09:33:10;100806.14;;;18.21;40.19
63708;BME280;67643;-34.198;22.084;2023-07-16T09:35:39;100803.05;;;18.24;40.24
63708;BME280;67643;-34.198;22.084;2023-07-16T09:38:09;100796.92;;;18.30;40.16
63708;BME280;67643;-34.198;22.084;2023-07-16T09:40:38;100793.81;;;18.42;40.04
63708;BME280;67643;-34.198;22.084;2023-07-16T09:43:07;100786.58;;;18.35;40.22
63708;BME280;67643;-34.198;22.084;2023-07-16T09:45:36;100781.17;;;18.19;40.19
63708;BME280;67643;-34.198;22.084;2023-07-16T09:48:06;100780.39;;;18.42;40.24
63708;BME280;67643;-34.198;22.084;2023-07-16T09:50:35;100774.49;;;18.37;40.36
63708;BME280;67643;-34.198;22.084;2023-07-16T09:53:05;100771.90;;;18.40;40.39
63708;BME280;67643;-34.198;22.084;2023-07-16T09:55:35;100769.34;;;18.17;40.05
63708;BME280;67643;-34.198;22.084;2023-07-16T09:58:11;100767.55;;;18.55;39.92
63708;BME280;67643;-34.198;22.084;2023-07-16T10:00:41;100762.30;;;18.20;40.02
63708;BME280;67643;-34.198;22.084;2023-07-16T10:03:09;100759.49;;;18.59;39.96
63708;BME280;67643;-34.198;22.084;2023-07-16T10:05:38;100759.61;;;18.78;39.71
63708;BME280;67643;-34.198;22.084;2023-07-16T10:08:17;100753.57;;;18.47;39.80
63708;BME280;67643;-34.198;22.084;2023-07-16T10:10:47;100748.04;;;18.78;39.79
63708;BME280;67643;-34.198;22.084;2023-07-16T10:13:16;100738.89;;;18.34;40.01
63708;BME280;67643;-34.198;22.084;2023-07-16T10:16:00;100731.12;;;18.52;40.22
63708;BME280;67643;-34.198;22.084;2023-07-16T10:18:29;100725.71;;;18.52;40.28
63708;BME280;67643;-34.198;22.084;2023-07-16T10:21:07;100715.34;;;18.47;40.41
63708;BME280;67643;-34.198;22.084;2023-07-16T10:23:40;100711.81;;;18.81;39.99
63708;BME280;67643;-34.198;22.084;2023-07-16T10:26:11;100706.77;;;18.52;40.04
63708;BME280;67643;-34.198;22.084;2023-07-16T10:28:39;100697.52;;;18.59;39.97
63708;BME280;67643;-34.198;22.084;2023-07-16T21:35:42;100837.64;;;15.37;53.50
63708;BME280;67643;-34.198;22.084;2023-07-16T21:38:11;100833.20;;;16.59;49.41
63708;BME280;67643;-34.198;22.084;2023-07-16T21:40:40;100829.55;;;17.13;46.89
63708;BME280;67643;-34.198;22.084;2023-07-16T21:43:08;100826.73;;;18.08;45.20
63708;BME280;67643;-34.198;22.084;2023-07-16T21:45:38;100825.35;;;17.91;44.46
63708;BME280;67643;-34.198;22.084;2023-07-16T21:48:07;100820.20;;;18.05;44.15
63708;BME280;67643;-34.198;22.084;2023-07-16T21:50:35;100817.33;;;17.94;43.95
63708;BME280;67643;-34.198;22.084;2023-07-16T21:53:13;100818.41;;;18.27;43.66
63708;BME280;67643;-34.198;22.084;2023-07-16T21:55:41;100817.25;;;18.20;43.64
63708;BME280;67643;-34.198;22.084;2023-07-16T21:58:10;100813.64;;;18.30;43.44
63708;BME280;67643;-34.198;22.084;2023-07-16T22:00:39;100808.85;;;18.51;43.08
63708;BME280;67643;-34.198;22.084;2023-07-16T22:03:07;100804.43;;;18.51;42.66
63708;BME280;67643;-34.198;22.084;2023-07-16T22:05:36;100799.22;;;18.66;42.68
63708;BME280;67643;-34.198;22.084;2023-07-16T22:08:05;100798.98;;;18.62;42.70
63708;BME280;67643;-34.198;22.084;2023-07-16T22:10:33;100798.95;;;18.45;42.88
63708;BME280;67643;-34.198;22.084;2023-07-16T22:13:01;100800.62;;;18.58;42.61
63708;BME280;67643;-34.198;22.084;2023-07-16T22:15:30;100800.80;;;18.59;42.57
63708;BME280;67643;-34.198;22.084;2023-07-16T22:17:59;100802.78;;;18.44;42.69
63708;BME280;67643;-34.198;22.084;2023-07-16T22:20:27;100801.61;;;18.55;42.53
63708;BME280;67643;-34.198;22.084;2023-07-16T22:22:56;100803.14;;;18.55;42.43
63708;BME280;67643;-34.198;22.084;2023-07-16T22:25:24;100802.25;;;18.53;42.39
63708;BME280;67643;-34.198;22.084;2023-07-16T22:27:53;100800.46;;;18.48;42.44
63708;BME280;67643;-34.198;22.084;2023-07-16T22:30:21;100798.62;;;18.39;42.58
63708;BME280;67643;-34.198;22.084;2023-07-16T22:32:49;100798.30;;;18.44;42.45
63708;BME280;67643;-34.198;22.084;2023-07-16T22:35:18;100795.08;;;18.38;42.45
63708;BME280;67643;-34.198;22.084;2023-07-16T22:37:47;100792.13;;;18.25;42.66
63708;BME280;67643;-34.198;22.084;2023-07-16T22:40:16;100791.64;;;18.21;42.69
63708;BME280;67643;-34.198;22.084;2023-07-16T22:42:44;100793.43;;;18.25;42.62
63708;BME280;67643;-34.198;22.084;2023-07-16T22:45:12;100789.62;;;18.28;42.58
63708;BME280;67643;-34.198;22.084;2023-07-16T22:47:41;100788.18;;;18.23;42.60
63708;BME280;67643;-34.198;22.084;2023-07-16T22:50:09;100777.93;;;18.20;42.59
63708;BME280;67643;-34.198;22.084;2023-07-16T22:52:38;100777.08;;;18.17;42.63
63708;BME280;67643;-34.198;22.084;2023-07-16T22:55:07;100775.74;;;18.16;42.64
63708;BME280;67643;-34.198;22.084;2023-07-16T22:57:36;100777.00;;;18.12;42.66
63708;BME280;67643;-34.198;22.084;2023-07-16T23:00:06;100774.29;;;18.56;42.73
63708;BME280;67643;-34.198;22.084;2023-07-16T23:02:35;100771.81;;;18.07;42.65
63708;BME280;67643;-34.198;22.084;2023-07-16T23:05:04;100767.45;;;18.03;42.73
63708;BME280;67643;-34.198;22.084;2023-07-16T23:07:32;100766.95;;;18.01;42.71
63708;BME280;67643;-34.198;22.084;2023-07-16T23:10:01;100761.30;;;18.06;42.63
63708;BME280;67643;-34.198;22.084;2023-07-16T23:12:30;100761.33;;;18.19;42.82
63708;BME280;67643;-34.198;22.084;2023-07-16T23:14:58;100756.00;;;17.96;42.75
63708;BME280;67643;-34.198;22.084;2023-07-16T23:17:27;100761.75;;;18.09;42.96
63708;BME280;67643;-34.198;22.084;2023-07-16T23:19:55;100766.86;;;17.82;42.95
63708;BME280;67643;-34.198;22.084;2023-07-16T23:22:24;100763.24;;;17.85;42.85
63708;BME280;67643;-34.198;22.084;2023-07-16T23:24:53;100757.39;;;17.86;42.82
63708;BME280;67643;-34.198;22.084;2023-07-16T23:27:21;100756.88;;;17.84;42.79
63708;BME280;67643;-34.198;22.084;2023-07-16T23:29:50;100758.06;;;18.43;42.62
63708;BME280;67643;-34.198;22.084;2023-07-16T23:32:19;100758.25;;;17.96;42.60
63708;BME280;67643;-34.198;22.084;2023-07-16T23:34:47;100749.40;;;18.10;42.85
63708;BME280;67643;-34.198;22.084;2023-07-16T23:37:16;100746.63;;;17.87;42.73
63708;BME280;67643;-34.198;22.084;2023-07-16T23:39:44;100748.03;;;17.87;42.78
63708;BME280;67643;-34.198;22.084;2023-07-16T23:42:12;100748.28;;;17.83;42.78
63708;BME280;67643;-34.198;22.084;2023-07-16T23:44:41;100739.06;;;18.20;42.94